createdAt,value
2018-03-23T00:00:35.331Z,0.00
2018-03-23T00:01:41.391Z,0.00
2018-03-23T00:02:47.453Z,0.00
2018-03-23T00:03:53.537Z,0.00
2018-03-23T00:04:59.622Z,0.00
2018-03-23T00:06:05.687Z,0.00
2018-03-23T00:07:11.751Z,0.00
2018-03-23T00:08:17.827Z,0.00
2018-03-23T00:09:23.900Z,0.00
2018-03-23T00:10:29.989Z,0.00
2018-03-23T00:11:36.048Z,0.00
2018-03-23T00:12:42.119Z,0.00
2018-03-23T00:13:48.189Z,0.00
2018-03-23T00:14:54.287Z,0.00
2018-03-23T00:16:00.525Z,0.00
2018-03-23T00:17:06.418Z,0.00
2018-03-23T00:18:12.499Z,0.00
2018-03-23T00:19:18.547Z,0.00
2018-03-23T00:20:24.633Z,0.00
2018-03-23T00:21:30.695Z,0.00
2018-03-23T00:22:36.766Z,0.00
2018-03-23T00:23:42.940Z,0.00
2018-03-23T00:24:48.932Z,0.00
2018-03-23T00:25:54.980Z,0.00
2018-03-23T00:27:01.058Z,0.00
2018-03-23T00:28:07.623Z,0.00
2018-03-23T00:29:13.198Z,0.00
2018-03-23T00:30:19.301Z,0.00
2018-03-23T00:31:25.341Z,0.00
2018-03-23T00:32:31.411Z,0.00
2018-03-23T00:33:37.482Z,0.00
2018-03-23T00:34:43.544Z,0.00
2018-03-23T00:35:49.656Z,0.00
2018-03-23T00:36:55.701Z,0.00
2018-03-23T00:38:01.777Z,0.00
2018-03-23T00:39:07.834Z,0.00
2018-03-23T00:40:13.955Z,0.00
2018-03-23T00:41:19.985Z,0.00
2018-03-23T00:42:26.060Z,0.00
2018-03-23T00:43:32.134Z,0.00
2018-03-23T00:44:38.207Z,0.00
2018-03-23T00:45:44.284Z,0.00
2018-03-23T00:46:50.349Z,0.00
2018-03-23T00:47:56.473Z,0.00
2018-03-23T00:49:02.481Z,0.00
2018-03-23T00:50:08.589Z,0.00
2018-03-23T00:51:14.633Z,0.00
2018-03-23T00:52:20.695Z,0.00
2018-03-23T00:53:26.759Z,0.00
2018-03-23T00:54:32.933Z,0.00
2018-03-23T00:55:38.947Z,0.00
2018-03-23T00:56:44.989Z,0.00
2018-03-23T00:57:51.052Z,0.00
2018-03-23T00:58:57.122Z,0.00
2018-03-23T01:00:03.235Z,0.00
2018-03-23T01:01:09.272Z,0.00
2018-03-23T01:02:15.332Z,0.00
2018-03-23T01:03:21.401Z,0.00
2018-03-23T01:04:27.467Z,0.00
2018-03-23T01:05:33.562Z,0.00
2018-03-23T01:06:39.617Z,0.00
2018-03-23T01:07:45.695Z,0.00
2018-03-23T01:08:51.748Z,0.00
2018-03-23T01:09:57.848Z,0.00
2018-03-23T01:11:03.905Z,0.00
2018-03-23T01:12:09.964Z,0.00
2018-03-23T01:13:16.034Z,0.00
2018-03-23T01:14:22.107Z,0.00
2018-03-23T01:15:28.188Z,0.00
2018-03-23T01:16:34.243Z,0.00
2018-03-23T01:17:40.314Z,0.00
2018-03-23T01:18:46.388Z,0.00
2018-03-23T01:19:52.469Z,0.00
2018-03-23T01:20:58.542Z,0.00
2018-03-23T01:22:04.601Z,0.00
2018-03-23T01:23:10.662Z,0.00
2018-03-23T01:24:16.734Z,0.00
2018-03-23T01:25:22.816Z,0.00
2018-03-23T01:26:28.951Z,0.00
2018-03-23T01:27:34.952Z,0.00
2018-03-23T01:28:41.021Z,0.00
2018-03-23T01:29:47.100Z,0.00
2018-03-23T01:30:53.193Z,0.00
2018-03-23T01:31:59.224Z,0.00
2018-03-23T01:33:05.788Z,0.00
2018-03-23T01:34:11.374Z,0.00
2018-03-23T01:35:17.478Z,0.00
2018-03-23T01:36:23.508Z,0.00
2018-03-23T01:37:29.596Z,0.00
2018-03-23T01:38:35.671Z,0.00
2018-03-23T01:39:41.727Z,0.00
2018-03-23T01:40:47.825Z,0.00
2018-03-23T01:41:53.871Z,0.00
2018-03-23T01:43:00.441Z,0.00
2018-03-23T01:44:06.014Z,0.00
2018-03-23T01:45:12.108Z,0.00
2018-03-23T01:46:18.152Z,0.00
2018-03-23T01:47:24.233Z,0.00
2018-03-23T01:48:30.306Z,0.00
2018-03-23T01:49:36.394Z,0.00
2018-03-23T01:50:42.469Z,0.00
2018-03-23T01:51:48.513Z,0.00
2018-03-23T01:52:54.582Z,0.00
2018-03-23T01:54:00.662Z,0.00
2018-03-23T01:55:06.770Z,0.00
2018-03-23T01:56:12.802Z,0.00
2018-03-23T01:57:18.879Z,0.00
2018-03-23T01:58:24.948Z,0.00
2018-03-23T01:59:31.024Z,0.00
2018-03-23T02:00:37.109Z,0.00
2018-03-23T02:01:43.170Z,0.00
2018-03-23T02:02:49.231Z,0.00
2018-03-23T02:03:55.609Z,0.00
2018-03-23T02:05:01.386Z,0.00
2018-03-23T02:06:07.475Z,0.00
2018-03-23T02:07:13.519Z,0.00
2018-03-23T02:08:19.593Z,0.00
2018-03-23T02:09:25.670Z,0.00
2018-03-23T02:10:31.754Z,0.00
2018-03-23T02:11:37.798Z,0.00
2018-03-23T02:12:43.877Z,0.00
2018-03-23T02:13:49.947Z,0.00
2018-03-23T02:14:56.020Z,0.00
2018-03-23T02:16:02.101Z,0.00
2018-03-23T02:17:08.339Z,0.00
2018-03-23T02:18:14.218Z,0.00
2018-03-23T02:19:20.294Z,0.00
2018-03-23T02:20:26.895Z,0.00
2018-03-23T02:21:32.450Z,0.00
2018-03-23T02:22:38.507Z,0.00
2018-03-23T02:23:44.588Z,0.00
2018-03-23T02:24:50.668Z,0.00
2018-03-23T02:25:56.746Z,0.00
2018-03-23T02:27:02.804Z,0.00
2018-03-23T02:28:08.952Z,0.00
2018-03-23T02:29:14.940Z,0.00
2018-03-23T02:30:21.029Z,0.00
2018-03-23T02:31:27.084Z,0.00
2018-03-23T02:32:33.149Z,0.00
2018-03-23T02:33:39.231Z,0.00
2018-03-23T02:34:45.323Z,0.00
2018-03-23T02:35:51.391Z,0.00
2018-03-23T02:36:57.453Z,0.00
2018-03-23T02:38:03.519Z,0.00
2018-03-23T02:39:10.093Z,0.00
2018-03-23T02:40:15.697Z,0.00
2018-03-23T02:41:21.737Z,0.00
2018-03-23T02:42:27.810Z,0.00
2018-03-23T02:43:33.888Z,0.00
2018-03-23T02:44:39.964Z,0.00
2018-03-23T02:45:46.069Z,0.00
2018-03-23T02:46:52.124Z,0.00
2018-03-23T02:47:58.194Z,0.00
2018-03-23T02:49:04.262Z,0.00
2018-03-23T02:50:10.338Z,0.00
2018-03-23T02:51:16.430Z,0.00
2018-03-23T02:52:22.475Z,0.00
2018-03-23T02:53:28.553Z,0.00
2018-03-23T02:54:34.619Z,0.00
2018-03-23T02:55:41.962Z,0.00
2018-03-23T02:56:46.773Z,0.00
2018-03-23T02:57:53.331Z,0.00
2018-03-23T02:58:58.903Z,0.00
2018-03-23T03:00:04.983Z,0.00
2018-03-23T03:01:11.573Z,0.00
2018-03-23T03:02:17.133Z,0.00
2018-03-23T03:03:23.199Z,0.00
2018-03-23T03:04:29.282Z,0.00
2018-03-23T03:05:35.366Z,0.00
2018-03-23T03:06:41.414Z,0.00
2018-03-23T03:07:47.480Z,0.00
2018-03-23T03:08:53.561Z,0.00
2018-03-23T03:09:59.633Z,0.00
2018-03-23T03:11:05.715Z,0.00
2018-03-23T03:12:11.786Z,0.00
2018-03-23T03:13:17.847Z,0.00
2018-03-23T03:14:23.920Z,0.00
2018-03-23T03:15:30.010Z,0.00
2018-03-23T03:16:36.057Z,0.00
2018-03-23T03:17:42.133Z,0.00
2018-03-23T03:18:48.190Z,0.00
2018-03-23T03:19:54.271Z,0.00
2018-03-23T03:21:00.366Z,0.00
2018-03-23T03:22:06.416Z,0.00
2018-03-23T03:23:12.483Z,0.00
2018-03-23T03:24:18.548Z,0.00
2018-03-23T03:25:24.623Z,0.00
2018-03-23T03:26:30.710Z,0.00
2018-03-23T03:27:36.764Z,0.00
2018-03-23T03:28:42.924Z,0.00
2018-03-23T03:29:48.909Z,0.00
2018-03-23T03:30:55.005Z,0.00
2018-03-23T03:32:01.062Z,0.00
2018-03-23T03:33:07.121Z,0.00
2018-03-23T03:34:13.185Z,0.00
2018-03-23T03:35:19.265Z,0.00
2018-03-23T03:36:25.865Z,0.00
2018-03-23T03:37:31.408Z,0.00
2018-03-23T03:38:37.479Z,0.00
2018-03-23T03:39:43.566Z,0.00
2018-03-23T03:40:49.644Z,0.00
2018-03-23T03:41:55.697Z,0.00
2018-03-23T03:43:01.770Z,0.00
2018-03-23T03:44:08.326Z,0.00
2018-03-23T03:45:13.914Z,0.00
2018-03-23T03:46:20.002Z,0.00
2018-03-23T03:47:26.052Z,0.00
2018-03-23T03:48:32.125Z,0.00
2018-03-23T03:49:38.210Z,0.00
2018-03-23T03:50:44.297Z,0.00
2018-03-23T03:51:50.346Z,0.00
2018-03-23T03:52:56.423Z,0.00
2018-03-23T03:54:02.499Z,0.00
2018-03-23T03:55:08.560Z,0.00
2018-03-23T03:56:14.660Z,0.00
2018-03-23T03:57:20.707Z,0.00
2018-03-23T03:58:26.775Z,0.00
2018-03-23T03:59:32.927Z,0.00
2018-03-23T04:00:38.955Z,0.00
2018-03-23T04:01:45.007Z,0.00
2018-03-23T04:02:51.073Z,0.00
2018-03-23T04:03:57.152Z,0.00
2018-03-23T04:05:03.232Z,0.00
2018-03-23T04:06:09.824Z,0.00
2018-03-23T04:07:15.369Z,0.00
2018-03-23T04:08:21.448Z,0.00
2018-03-23T04:09:27.530Z,0.00
2018-03-23T04:10:33.591Z,0.00
2018-03-23T04:11:39.695Z,0.00
2018-03-23T04:12:45.742Z,0.00
2018-03-23T04:13:52.312Z,0.00
2018-03-23T04:14:57.907Z,0.00
2018-03-23T04:16:03.979Z,0.00
2018-03-23T04:17:10.046Z,0.00
2018-03-23T04:18:16.117Z,0.00
2018-03-23T04:19:22.184Z,0.00
2018-03-23T04:20:28.248Z,0.00
2018-03-23T04:21:34.340Z,0.00
2018-03-23T04:22:40.432Z,0.00
2018-03-23T04:23:46.474Z,0.00
2018-03-23T04:24:52.552Z,0.00
2018-03-23T04:25:58.647Z,0.00
2018-03-23T04:27:04.714Z,0.00
2018-03-23T04:28:10.771Z,0.00
2018-03-23T04:29:16.928Z,0.00
2018-03-23T04:30:22.922Z,0.00
2018-03-23T04:31:29.014Z,0.00
2018-03-23T04:32:35.066Z,0.00
2018-03-23T04:33:41.128Z,0.00
2018-03-23T04:34:47.207Z,0.00
2018-03-23T04:35:53.299Z,0.00
2018-03-23T04:36:59.363Z,0.00
2018-03-23T04:38:05.437Z,0.00
2018-03-23T04:39:11.495Z,0.00
2018-03-23T04:40:17.576Z,0.00
2018-03-23T04:41:24.170Z,0.00
2018-03-23T04:42:29.744Z,0.00
2018-03-23T04:43:35.800Z,0.00
2018-03-23T04:44:41.878Z,0.00
2018-03-23T04:45:47.973Z,0.00
2018-03-23T04:46:54.048Z,0.00
2018-03-23T04:48:00.099Z,0.00
2018-03-23T04:49:06.570Z,0.00
2018-03-23T04:50:12.242Z,0.00
2018-03-23T04:51:19.155Z,4.00
2018-03-23T04:52:24.384Z,0.00
2018-03-23T04:53:30.474Z,0.00
2018-03-23T04:54:36.548Z,4.00
2018-03-23T04:55:42.672Z,4.00
2018-03-23T04:56:48.731Z,8.00
2018-03-23T04:57:54.823Z,8.00
2018-03-23T04:59:00.805Z,8.00
2018-03-23T05:00:06.959Z,8.00
2018-03-23T05:01:12.987Z,12.00
2018-03-23T05:02:19.016Z,16.00
2018-03-23T05:03:25.112Z,16.00
2018-03-23T05:04:31.199Z,16.00
2018-03-23T05:06:43.331Z,28.00
2018-03-23T05:07:49.378Z,32.00
2018-03-23T05:08:55.442Z,40.00
2018-03-23T05:10:02.060Z,44.00
2018-03-23T05:11:07.625Z,56.00
2018-03-23T05:12:13.654Z,60.00
2018-03-23T05:14:26.173Z,80.00
2018-03-23T05:15:31.909Z,96.00
2018-03-23T05:16:38.466Z,104.00
2018-03-23T05:17:44.031Z,120.00
2018-03-23T05:18:50.214Z,124.00
2018-03-23T05:19:56.163Z,132.00
2018-03-23T05:21:02.263Z,148.00
2018-03-23T05:22:08.311Z,168.00
2018-03-23T05:23:14.372Z,172.00
2018-03-23T05:24:20.460Z,180.00
2018-03-23T05:25:26.514Z,196.00
2018-03-23T05:26:32.616Z,212.00
2018-03-23T05:27:38.663Z,228.00
2018-03-23T05:28:44.744Z,244.00
2018-03-23T05:29:50.810Z,256.00
2018-03-23T05:30:56.912Z,244.00
2018-03-23T05:32:02.973Z,248.00
2018-03-23T05:33:09.034Z,272.00
2018-03-23T05:34:15.098Z,296.00
2018-03-23T05:35:21.180Z,328.00
2018-03-23T05:36:27.267Z,368.00
2018-03-23T05:37:33.317Z,404.00
2018-03-23T05:38:39.395Z,472.00
2018-03-23T05:39:45.482Z,516.00
2018-03-23T05:40:51.548Z,556.00
2018-03-23T05:41:57.632Z,596.00
2018-03-23T05:43:03.698Z,596.00
2018-03-23T05:44:09.773Z,572.00
2018-03-23T05:45:15.833Z,584.00
2018-03-23T05:46:21.959Z,616.00
2018-03-23T05:47:27.987Z,616.00
2018-03-23T05:48:34.065Z,632.00
2018-03-23T05:49:40.149Z,656.00
2018-03-23T05:50:46.213Z,688.00
2018-03-23T05:51:52.334Z,728.00
2018-03-23T05:52:58.368Z,764.00
2018-03-23T05:54:04.435Z,804.00
2018-03-23T05:55:10.533Z,884.00
2018-03-23T05:56:16.617Z,960.00
2018-03-23T05:57:22.676Z,976.00
2018-03-23T05:58:28.745Z,1020.00
2018-03-23T05:59:34.935Z,1064.00
2018-03-23T06:00:40.910Z,1104.00
2018-03-23T06:01:47.000Z,1116.00
2018-03-23T06:02:53.066Z,1196.00
2018-03-23T06:03:59.140Z,1332.00
2018-03-23T06:05:05.224Z,1404.00
2018-03-23T06:06:11.324Z,1492.00
2018-03-23T06:07:17.385Z,1696.00
2018-03-23T06:08:23.467Z,1840.00
2018-03-23T06:09:29.570Z,1940.00
2018-03-23T06:10:36.115Z,1920.00
2018-03-23T06:11:41.722Z,1880.00
2018-03-23T06:12:47.794Z,1824.00
2018-03-23T06:13:53.903Z,1736.00
2018-03-23T06:14:59.971Z,1652.00
2018-03-23T06:16:06.045Z,1772.00
2018-03-23T06:17:12.165Z,1872.00
2018-03-23T06:18:18.222Z,1908.00
2018-03-23T06:19:24.303Z,1948.00
2018-03-23T06:20:30.388Z,2076.00
2018-03-23T06:21:36.512Z,2108.00
2018-03-23T06:22:42.611Z,2144.00
2018-03-23T06:23:48.662Z,2252.00
2018-03-23T06:24:54.725Z,2440.00
2018-03-23T06:26:01.304Z,2580.00
2018-03-23T06:27:06.928Z,2716.00
2018-03-23T06:28:12.985Z,2708.00
2018-03-23T06:29:19.081Z,2608.00
2018-03-23T06:30:25.195Z,2564.00
2018-03-23T06:31:31.772Z,2640.00
2018-03-23T06:32:37.346Z,2668.00
2018-03-23T06:33:43.436Z,2688.00
2018-03-23T06:34:49.527Z,2660.00
2018-03-23T06:35:55.629Z,2676.00
2018-03-23T06:37:02.217Z,2728.00
2018-03-23T06:38:07.810Z,2948.00
2018-03-23T06:39:14.545Z,3336.00
2018-03-23T06:40:20.013Z,3616.00
2018-03-23T06:41:26.167Z,3712.00
2018-03-23T06:42:32.203Z,3624.00
2018-03-23T06:43:38.320Z,3684.00
2018-03-23T06:44:44.403Z,3584.00
2018-03-23T06:45:50.542Z,3628.00
2018-03-23T06:46:56.629Z,3688.00
2018-03-23T06:48:02.653Z,3464.00
2018-03-23T06:49:08.746Z,3424.00
2018-03-23T06:50:14.931Z,3572.00
2018-03-23T06:51:20.967Z,3772.00
2018-03-23T06:52:27.054Z,4024.00
2018-03-23T06:53:33.143Z,4292.00
2018-03-23T06:54:39.259Z,4592.00
2018-03-23T06:55:45.868Z,4776.00
2018-03-23T06:56:51.470Z,5216.00
2018-03-23T06:57:57.548Z,5656.00
2018-03-23T06:59:03.667Z,5676.00
2018-03-23T07:00:09.770Z,5444.00
2018-03-23T07:01:15.879Z,5532.00
2018-03-23T07:02:22.013Z,5856.00
2018-03-23T07:03:28.093Z,6020.00
2018-03-23T07:04:34.212Z,6104.00
2018-03-23T07:05:40.319Z,6192.00
2018-03-23T07:06:46.443Z,6344.00
2018-03-23T07:07:53.551Z,6432.00
2018-03-23T07:08:58.657Z,6648.00
2018-03-23T07:10:04.785Z,6872.00
2018-03-23T07:11:10.907Z,7168.00
2018-03-23T07:12:17.061Z,7388.00
2018-03-23T07:13:23.138Z,7508.00
2018-03-23T07:14:29.284Z,7552.00
2018-03-23T07:15:35.384Z,7548.00
2018-03-23T07:16:41.530Z,7416.00
2018-03-23T07:17:47.643Z,7452.00
2018-03-23T07:18:53.773Z,7792.00
2018-03-23T07:19:59.904Z,7832.00
2018-03-23T07:21:06.039Z,7764.00
2018-03-23T07:22:12.189Z,7340.00
2018-03-23T07:23:18.303Z,6580.00
2018-03-23T07:24:24.445Z,5956.00
2018-03-23T07:25:30.573Z,5528.00
2018-03-23T07:26:36.727Z,5504.00
2018-03-23T07:27:42.941Z,5784.00
2018-03-23T07:28:48.959Z,6096.00
2018-03-23T07:29:55.116Z,6588.00
2018-03-23T07:31:01.232Z,6864.00
2018-03-23T07:32:07.397Z,7480.00
2018-03-23T07:33:13.491Z,8116.00
2018-03-23T07:34:19.640Z,8868.00
2018-03-23T07:35:25.758Z,9608.00
2018-03-23T07:36:31.924Z,9500.00
2018-03-23T07:37:38.093Z,9660.00
2018-03-23T07:38:44.206Z,10176.00
2018-03-23T07:39:50.925Z,10208.00
2018-03-23T07:40:56.492Z,10040.00
2018-03-23T07:42:02.656Z,10060.00
2018-03-23T07:43:08.793Z,11280.00
2018-03-23T07:44:14.944Z,11704.00
2018-03-23T07:45:21.615Z,12200.00
2018-03-23T07:46:27.270Z,11884.00
2018-03-23T07:47:33.435Z,11308.00
2018-03-23T07:48:39.580Z,11104.00
2018-03-23T07:49:45.742Z,10968.00
2018-03-23T07:50:52.096Z,10300.00
2018-03-23T07:51:58.101Z,9948.00
2018-03-23T07:53:04.246Z,9352.00
2018-03-23T07:54:10.407Z,9336.00
2018-03-23T07:55:16.583Z,9596.00
2018-03-23T07:56:22.720Z,9656.00
2018-03-23T07:57:28.901Z,10324.00
2018-03-23T07:58:35.042Z,10620.00
2018-03-23T07:59:41.216Z,11228.00
2018-03-23T08:00:47.378Z,12384.00
2018-03-23T08:01:55.054Z,12452.00
2018-03-23T08:02:59.730Z,11448.00
2018-03-23T08:04:05.937Z,10736.00
2018-03-23T08:05:12.067Z,10840.00
2018-03-23T08:06:18.239Z,11812.00
2018-03-23T08:07:24.437Z,12624.00
2018-03-23T08:08:30.588Z,12312.00
2018-03-23T08:09:36.773Z,12488.00
2018-03-23T08:10:42.949Z,13044.00
2018-03-23T08:11:49.146Z,13488.00
2018-03-23T08:12:55.305Z,13256.00
2018-03-23T08:14:01.492Z,12752.00
2018-03-23T08:15:07.681Z,12104.00
2018-03-23T08:16:13.850Z,11296.00
2018-03-23T08:17:20.060Z,10064.00
2018-03-23T08:18:26.228Z,9600.00
2018-03-23T08:19:32.397Z,9784.00
2018-03-23T08:20:38.569Z,10780.00
2018-03-23T08:21:44.782Z,12396.00
2018-03-23T08:22:51.431Z,14632.00
2018-03-23T08:23:57.117Z,17252.00
2018-03-23T08:25:03.315Z,20096.00
2018-03-23T08:26:09.505Z,19552.00
2018-03-23T08:27:15.733Z,18176.00
2018-03-23T08:28:21.930Z,17536.00
2018-03-23T08:29:28.129Z,17024.00
2018-03-23T08:30:34.342Z,16512.00
2018-03-23T08:31:40.570Z,16252.00
2018-03-23T08:32:46.781Z,15292.00
2018-03-23T08:33:52.986Z,14328.00
2018-03-23T08:34:59.228Z,13092.00
2018-03-23T08:36:05.437Z,11488.00
2018-03-23T08:37:11.686Z,10544.00
2018-03-23T08:38:17.854Z,10464.00
2018-03-23T08:39:24.062Z,10876.00
2018-03-23T08:40:30.281Z,11052.00
2018-03-23T08:41:36.471Z,11072.00
2018-03-23T08:42:42.699Z,10652.00
2018-03-23T08:43:48.874Z,9912.00
2018-03-23T08:44:55.084Z,9572.00
2018-03-23T08:46:01.272Z,9896.00
2018-03-23T08:47:07.999Z,10592.00
2018-03-23T08:48:13.669Z,10160.00
2018-03-23T08:49:19.869Z,9516.00
2018-03-23T08:50:26.051Z,9124.00
2018-03-23T08:51:32.235Z,9160.00
2018-03-23T08:52:38.955Z,9800.00
2018-03-23T08:53:44.624Z,10348.00
2018-03-23T08:54:50.823Z,9928.00
2018-03-23T08:55:57.008Z,9900.00
2018-03-23T08:57:03.224Z,10908.00
2018-03-23T08:58:09.397Z,11724.00
2018-03-23T08:59:15.597Z,11756.00
2018-03-23T09:00:21.784Z,10312.00
2018-03-23T09:01:27.973Z,8492.00
2018-03-23T09:02:34.183Z,9004.00
2018-03-23T09:03:40.356Z,9548.00
2018-03-23T09:04:46.553Z,9952.00
2018-03-23T09:05:52.735Z,11572.00
2018-03-23T09:06:58.943Z,11284.00
2018-03-23T09:08:05.109Z,11360.00
2018-03-23T09:09:11.304Z,12952.00
2018-03-23T09:10:17.491Z,12804.00
2018-03-23T09:11:23.686Z,14724.00
2018-03-23T09:12:29.906Z,15544.00
2018-03-23T09:13:36.076Z,15576.00
2018-03-23T09:14:42.303Z,15820.00
2018-03-23T09:15:48.497Z,16152.00
2018-03-23T09:16:54.728Z,15572.00
2018-03-23T09:18:01.418Z,16132.00
2018-03-23T09:19:07.140Z,17792.00
2018-03-23T09:20:13.357Z,18912.00
2018-03-23T09:21:19.590Z,19264.00
2018-03-23T09:22:25.837Z,19136.00
2018-03-23T09:23:32.044Z,18624.00
2018-03-23T09:24:38.275Z,20224.00
2018-03-23T09:25:44.510Z,20736.00
2018-03-23T09:26:50.775Z,19744.00
2018-03-23T09:27:57.007Z,18400.00
2018-03-23T09:29:03.231Z,16476.00
2018-03-23T09:30:09.469Z,14920.00
2018-03-23T09:31:15.773Z,14900.00
2018-03-23T09:32:21.985Z,14940.00
2018-03-23T09:33:28.172Z,14600.00
2018-03-23T09:34:34.418Z,14648.00
2018-03-23T09:35:40.644Z,14396.00
2018-03-23T09:36:47.375Z,15232.00
2018-03-23T09:37:53.142Z,16560.00
2018-03-23T09:38:59.350Z,18592.00
2018-03-23T09:40:05.586Z,18720.00
2018-03-23T09:41:11.827Z,19392.00
2018-03-23T09:42:18.107Z,19776.00
2018-03-23T09:43:24.311Z,19424.00
2018-03-23T09:44:30.565Z,18592.00
2018-03-23T09:45:36.832Z,18016.00
2018-03-23T09:46:43.113Z,17528.00
2018-03-23T09:47:49.334Z,17320.00
2018-03-23T09:48:55.576Z,17576.00
2018-03-23T09:50:01.846Z,18560.00
2018-03-23T09:51:08.089Z,20224.00
2018-03-23T09:52:14.357Z,21504.00
2018-03-23T09:53:20.598Z,21504.00
2018-03-23T09:54:26.930Z,21184.00
2018-03-23T09:55:33.138Z,20640.00
2018-03-23T09:56:39.393Z,21536.00
2018-03-23T09:57:45.677Z,21632.00
2018-03-23T09:58:51.932Z,21248.00
2018-03-23T09:59:58.212Z,20960.00
2018-03-23T10:01:04.508Z,20800.00
2018-03-23T10:02:10.765Z,20416.00
2018-03-23T10:03:17.022Z,20480.00
2018-03-23T10:04:23.312Z,20608.00
2018-03-23T10:05:29.635Z,19360.00
2018-03-23T10:06:35.877Z,18464.00
2018-03-23T10:07:42.166Z,16988.00
2018-03-23T10:08:48.431Z,17296.00
2018-03-23T10:09:55.202Z,17028.00
2018-03-23T10:11:00.958Z,18048.00
2018-03-23T10:12:07.262Z,18528.00
2018-03-23T10:13:13.568Z,18304.00
2018-03-23T10:14:19.784Z,20224.00
2018-03-23T10:15:26.065Z,21632.00
2018-03-23T10:16:32.340Z,23008.00
2018-03-23T10:17:38.652Z,23040.00
2018-03-23T10:18:44.924Z,22496.00
2018-03-23T10:19:51.202Z,20992.00
2018-03-23T10:20:57.487Z,20320.00
2018-03-23T10:22:03.803Z,18432.00
2018-03-23T10:23:10.090Z,17696.00
2018-03-23T10:24:16.355Z,17856.00
2018-03-23T10:25:22.662Z,17364.00
2018-03-23T10:26:28.947Z,17440.00
2018-03-23T10:27:35.262Z,19040.00
2018-03-23T10:28:41.550Z,19200.00
2018-03-23T10:29:47.830Z,20864.00
2018-03-23T10:30:54.119Z,19168.00
2018-03-23T10:32:00.424Z,16828.00
2018-03-23T10:33:06.752Z,15784.00
2018-03-23T10:34:13.015Z,15700.00
2018-03-23T10:35:19.326Z,14992.00
2018-03-23T10:36:25.607Z,14352.00
2018-03-23T10:37:31.913Z,14664.00
2018-03-23T10:38:38.184Z,16564.00
2018-03-23T10:39:44.477Z,19488.00
2018-03-23T10:40:50.771Z,21504.00
2018-03-23T10:41:57.063Z,22336.00
2018-03-23T10:43:03.376Z,23712.00
2018-03-23T10:44:09.667Z,22208.00
2018-03-23T10:45:15.989Z,22240.00
2018-03-23T10:46:22.292Z,22208.00
2018-03-23T10:47:28.639Z,19872.00
2018-03-23T10:48:34.947Z,20160.00
2018-03-23T10:49:41.271Z,20736.00
2018-03-23T10:50:48.582Z,21440.00
2018-03-23T10:51:53.914Z,21664.00
2018-03-23T10:53:00.260Z,21952.00
2018-03-23T10:54:06.567Z,22464.00
2018-03-23T10:55:12.893Z,22752.00
2018-03-23T10:56:19.235Z,22880.00
2018-03-23T10:57:25.582Z,25152.00
2018-03-23T10:58:32.403Z,27424.00
2018-03-23T10:59:39.268Z,28480.00
2018-03-23T11:00:44.677Z,28896.00
2018-03-23T11:01:50.959Z,28544.00
2018-03-23T11:02:57.342Z,27616.00
2018-03-23T11:04:03.698Z,26624.00
2018-03-23T11:05:10.066Z,26336.00
2018-03-23T11:06:16.450Z,26624.00
2018-03-23T11:07:22.831Z,26880.00
2018-03-23T11:08:29.216Z,26464.00
2018-03-23T11:09:35.585Z,26944.00
2018-03-23T11:10:41.974Z,27712.00
2018-03-23T11:11:48.394Z,27680.00
2018-03-23T11:12:54.986Z,27488.00
2018-03-23T11:14:01.165Z,27328.00
2018-03-23T11:15:07.567Z,27200.00
2018-03-23T11:16:13.969Z,26912.00
2018-03-23T11:17:20.364Z,26240.00
2018-03-23T11:18:26.792Z,24896.00
2018-03-23T11:19:33.182Z,23584.00
2018-03-23T11:20:39.584Z,23360.00
2018-03-23T11:21:45.989Z,22592.00
2018-03-23T11:22:52.394Z,22240.00
2018-03-23T11:23:58.760Z,22912.00
2018-03-23T11:25:05.166Z,24896.00
2018-03-23T11:26:11.542Z,27616.00
2018-03-23T11:27:17.938Z,29984.00
2018-03-23T11:28:24.355Z,31200.00
2018-03-23T11:29:30.748Z,31136.00
2018-03-23T11:30:37.165Z,30368.00
2018-03-23T11:31:43.590Z,27072.00
2018-03-23T11:32:50.012Z,23616.00
2018-03-23T11:33:56.439Z,22848.00
2018-03-23T11:35:02.930Z,23328.00
2018-03-23T11:36:09.261Z,25056.00
2018-03-23T11:37:15.682Z,25952.00
2018-03-23T11:38:22.124Z,25760.00
2018-03-23T11:39:28.526Z,25216.00
2018-03-23T11:40:34.939Z,25248.00
2018-03-23T11:41:41.369Z,25152.00
2018-03-23T11:42:47.786Z,24672.00
2018-03-23T11:43:54.225Z,23936.00
2018-03-23T11:45:00.636Z,22304.00
2018-03-23T11:46:07.053Z,20128.00
2018-03-23T11:47:13.475Z,19200.00
2018-03-23T11:48:19.918Z,18752.00
2018-03-23T11:49:26.321Z,17920.00
2018-03-23T11:50:33.214Z,16664.00
2018-03-23T11:51:39.182Z,16940.00
2018-03-23T11:52:45.546Z,18560.00
2018-03-23T11:53:51.948Z,20928.00
2018-03-23T11:54:58.329Z,22528.00
2018-03-23T11:56:04.725Z,22720.00
2018-03-23T11:57:11.117Z,23488.00
2018-03-23T11:58:17.556Z,24800.00
2018-03-23T11:59:23.945Z,25664.00
2018-03-23T12:00:30.351Z,25568.00
2018-03-23T12:01:36.763Z,24928.00
2018-03-23T12:02:43.187Z,22752.00
2018-03-23T12:03:49.617Z,19744.00
2018-03-23T12:04:56.049Z,18880.00
2018-03-23T12:06:02.429Z,19168.00
2018-03-23T12:07:08.932Z,19712.00
2018-03-23T12:08:15.754Z,19392.00
2018-03-23T12:09:21.677Z,18304.00
2018-03-23T12:10:28.061Z,17072.00
2018-03-23T12:11:34.454Z,16464.00
2018-03-23T12:12:40.931Z,16292.00
2018-03-23T12:13:47.264Z,16004.00
2018-03-23T12:14:53.629Z,15984.00
2018-03-23T12:16:00.023Z,16096.00
2018-03-23T12:17:06.408Z,15912.00
2018-03-23T12:18:12.817Z,15200.00
2018-03-23T12:19:19.163Z,14564.00
2018-03-23T12:20:25.535Z,13500.00
2018-03-23T12:21:31.988Z,12256.00
2018-03-23T12:22:38.282Z,11652.00
2018-03-23T12:23:44.675Z,11272.00
2018-03-23T12:24:50.994Z,11700.00
2018-03-23T12:25:57.841Z,12400.00
2018-03-23T12:27:03.708Z,12976.00
2018-03-23T12:28:10.078Z,12820.00
2018-03-23T12:29:16.419Z,12532.00
2018-03-23T12:30:22.751Z,11948.00
2018-03-23T12:31:29.104Z,10616.00
2018-03-23T12:32:35.429Z,9084.00
2018-03-23T12:33:41.796Z,7676.00
2018-03-23T12:34:48.176Z,7072.00
2018-03-23T12:35:54.427Z,7072.00
2018-03-23T12:37:00.747Z,7140.00
2018-03-23T12:38:07.110Z,7052.00
2018-03-23T12:39:13.397Z,7208.00
2018-03-23T12:40:19.670Z,7756.00
2018-03-23T12:41:25.960Z,8312.00
2018-03-23T12:42:32.254Z,8764.00
2018-03-23T12:43:38.593Z,9472.00
2018-03-23T12:44:45.331Z,9936.00
2018-03-23T12:45:51.127Z,10396.00
2018-03-23T12:46:57.402Z,10336.00
2018-03-23T12:48:03.702Z,9944.00
2018-03-23T12:49:10.506Z,9696.00
2018-03-23T12:50:16.268Z,9612.00
2018-03-23T12:51:22.557Z,9684.00
2018-03-23T12:52:28.926Z,9708.00
2018-03-23T12:53:35.139Z,9756.00
2018-03-23T12:54:41.393Z,9728.00
2018-03-23T12:55:47.677Z,9428.00
2018-03-23T12:56:53.955Z,9136.00
2018-03-23T12:58:00.229Z,8708.00
2018-03-23T12:59:06.521Z,8240.00
2018-03-23T13:00:12.778Z,7920.00
2018-03-23T13:01:19.048Z,7788.00
2018-03-23T13:02:25.313Z,7788.00
2018-03-23T13:03:31.589Z,7660.00
2018-03-23T13:04:37.831Z,7480.00
2018-03-23T13:05:44.102Z,7332.00
2018-03-23T13:06:50.359Z,7152.00
2018-03-23T13:07:56.808Z,6956.00
2018-03-23T13:09:02.965Z,6864.00
2018-03-23T13:10:09.129Z,6824.00
2018-03-23T13:11:15.568Z,6768.00
2018-03-23T13:12:21.640Z,6692.00
2018-03-23T13:13:27.898Z,6528.00
2018-03-23T13:14:34.135Z,6320.00
2018-03-23T13:15:40.933Z,5968.00
2018-03-23T13:16:46.615Z,5784.00
2018-03-23T13:17:52.941Z,5936.00
2018-03-23T13:18:59.140Z,5992.00
2018-03-23T13:20:05.371Z,5872.00
2018-03-23T13:21:11.601Z,5896.00
2018-03-23T13:22:17.829Z,6076.00
2018-03-23T13:23:24.076Z,6560.00
2018-03-23T13:24:30.332Z,7672.00
2018-03-23T13:25:36.555Z,9028.00
2018-03-23T13:26:42.802Z,10316.00
2018-03-23T13:27:49.049Z,11260.00
2018-03-23T13:28:55.330Z,12488.00
2018-03-23T13:30:01.539Z,13680.00
2018-03-23T13:31:07.779Z,14692.00
2018-03-23T13:32:14.049Z,15188.00
2018-03-23T13:33:20.319Z,15472.00
2018-03-23T13:34:26.597Z,15768.00
2018-03-23T13:35:33.381Z,16016.00
2018-03-23T13:36:39.117Z,16216.00
2018-03-23T13:37:45.406Z,16076.00
2018-03-23T13:38:51.698Z,16564.00
2018-03-23T13:39:57.975Z,16924.00
2018-03-23T13:41:04.260Z,17280.00
2018-03-23T13:42:10.549Z,17824.00
2018-03-23T13:43:16.942Z,17856.00